Terminal Aerodrome Forecast
Issued by NWS

Home | Current Version | Previous Version | Text Only | Print | Product List | Glossary On
Versions: 1 2 3 4 5 6 7 8 9 10 11 12 13 14 15 16 17 18 19 20 21 22 23 24 25 26 27 28 29 30 31 32 33 34
514
FTUS43 KDDC 120520
TAFGCK
TAF
KGCK 120520Z 1206/1306 34007KT P6SM FEW250
     FM121500 01007KT P6SM SCT250
     FM122100 07009KT P6SM SCT070
     FM130100 10013KT P6SM SCT200
     FM130300 10014KT P6SM OVC010=

USA.gov is the U.S. government's official web portal to all federal, state and local government web resources and services.